sensor_id;sensor_type;location;lat;lon;timestamp;pressure;altitude;pressure_sealevel;temperature;humidity
74065;BME280;62421;51.412;5.432;2022-12-20T00:02:07;101306.19;;;8.45;99.30
74065;BME280;62421;51.412;5.432;2022-12-20T00:04:32;101291.63;;;8.51;99.04
74065;BME280;62421;51.412;5.432;2022-12-20T00:06:58;101297.56;;;8.56;99.17
74065;BME280;62421;51.412;5.432;2022-12-20T00:09:23;101295.59;;;8.59;98.71
74065;BME280;62421;51.412;5.432;2022-12-20T00:11:49;101297.16;;;8.64;98.75
74065;BME280;62421;51.412;5.432;2022-12-20T00:14:15;101290.00;;;8.64;98.41
74065;BME280;62421;51.412;5.432;2022-12-20T00:16:40;101298.72;;;8.68;98.39
74065;BME280;62421;51.412;5.432;2022-12-20T00:19:06;101287.69;;;8.74;98.11
74065;BME280;62421;51.412;5.432;2022-12-20T00:21:34;101278.53;;;8.78;97.80
74065;BME280;62421;51.412;5.432;2022-12-20T00:24:00;101281.22;;;8.78;98.07
74065;BME280;62421;51.412;5.432;2022-12-20T00:26:28;101274.81;;;8.80;97.75
74065;BME280;62421;51.412;5.432;2022-12-20T00:28:54;101278.28;;;8.82;97.49
74065;BME280;62421;51.412;5.432;2022-12-20T00:31:22;101271.63;;;8.90;96.91
74065;BME280;62421;51.412;5.432;2022-12-20T00:33:49;101283.88;;;8.94;97.27
74065;BME280;62421;51.412;5.432;2022-12-20T00:36:16;101277.41;;;8.98;96.84
74065;BME280;62421;51.412;5.432;2022-12-20T00:38:46;101255.72;;;9.02;96.95
74065;BME280;62421;51.412;5.432;2022-12-20T00:41:23;101264.44;;;9.06;96.05
74065;BME280;62421;51.412;5.432;2022-12-20T00:43:48;101260.53;;;9.12;96.24
74065;BME280;62421;51.412;5.432;2022-12-20T00:46:16;101253.97;;;9.17;95.81
74065;BME280;62421;51.412;5.432;2022-12-20T00:48:42;101248.44;;;9.20;95.28
74065;BME280;62421;51.412;5.432;2022-12-20T00:51:10;101252.66;;;9.25;95.24
74065;BME280;62421;51.412;5.432;2022-12-20T00:53:36;101252.31;;;9.31;94.88
74065;BME280;62421;51.412;5.432;2022-12-20T00:56:03;101248.41;;;9.36;94.78
74065;BME280;62421;51.412;5.432;2022-12-20T00:58:30;101257.03;;;9.41;94.36
74065;BME280;62421;51.412;5.432;2022-12-20T01:00:56;101261.28;;;9.46;94.11
74065;BME280;62421;51.412;5.432;2022-12-20T01:03:21;101250.47;;;9.47;94.53
74065;BME280;62421;51.412;5.432;2022-12-20T01:05:55;101252.09;;;9.50;96.01
74065;BME280;62421;51.412;5.432;2022-12-20T01:08:22;101261.09;;;9.49;95.98
74065;BME280;62421;51.412;5.432;2022-12-20T01:11:18;101265.56;;;9.48;97.85
74065;BME280;62421;51.412;5.432;2022-12-20T01:13:47;101280.03;;;9.46;97.14
74065;BME280;62421;51.412;5.432;2022-12-20T01:16:31;101280.22;;;9.42;98.86
74065;BME280;62421;51.412;5.432;2022-12-20T01:18:57;101275.13;;;9.38;98.75
74065;BME280;62421;51.412;5.432;2022-12-20T01:21:24;101263.81;;;9.33;100.00
74065;BME280;62421;51.412;5.432;2022-12-20T01:23:50;101252.66;;;9.25;100.00
74065;BME280;62421;51.412;5.432;2022-12-20T01:26:18;101267.28;;;9.19;100.00
74065;BME280;62421;51.412;5.432;2022-12-20T01:28:45;101267.56;;;9.14;100.00
74065;BME280;62421;51.412;5.432;2022-12-20T01:31:14;101275.84;;;9.10;100.00
74065;BME280;62421;51.412;5.432;2022-12-20T01:33:41;101274.97;;;9.09;100.00
74065;BME280;62421;51.412;5.432;2022-12-20T01:36:10;101270.59;;;9.08;100.00
74065;BME280;62421;51.412;5.432;2022-12-20T01:38:36;101257.47;;;9.04;100.00
74065;BME280;62421;51.412;5.432;2022-12-20T01:41:03;101263.75;;;9.02;100.00
74065;BME280;62421;51.412;5.432;2022-12-20T01:44:03;101255.13;;;8.97;100.00
74065;BME280;62421;51.412;5.432;2022-12-20T01:46:31;101251.81;;;8.92;100.00
74065;BME280;62421;51.412;5.432;2022-12-20T01:51:31;101225.38;;;8.86;100.00
74065;BME280;62421;51.412;5.432;2022-12-20T01:54:02;101221.00;;;8.85;100.00
74065;BME280;62421;51.412;5.432;2022-12-20T01:56:28;101214.88;;;8.83;100.00
74065;BME280;62421;51.412;5.432;2022-12-20T01:58:55;101216.69;;;8.82;100.00
74065;BME280;62421;51.412;5.432;2022-12-20T02:01:23;101212.25;;;8.81;100.00
74065;BME280;62421;51.412;5.432;2022-12-20T02:03:50;101206.91;;;8.81;100.00
74065;BME280;62421;51.412;5.432;2022-12-20T02:06:21;101222.03;;;8.82;100.00
74065;BME280;62421;51.412;5.432;2022-12-20T02:08:48;101226.63;;;8.80;100.00
74065;BME280;62421;51.412;5.432;2022-12-20T02:11:44;101213.31;;;8.79;100.00
74065;BME280;62421;51.412;5.432;2022-12-20T02:17:02;101215.22;;;8.77;100.00
74065;BME280;62421;51.412;5.432;2022-12-20T02:22:30;101200.97;;;8.76;100.00
74065;BME280;62421;51.412;5.432;2022-12-20T02:25:19;101197.31;;;8.77;100.00
74065;BME280;62421;51.412;5.432;2022-12-20T02:30:20;101197.31;;;8.77;100.00
74065;BME280;62421;51.412;5.432;2022-12-20T02:35:24;101189.28;;;8.77;100.00
74065;BME280;62421;51.412;5.432;2022-12-20T02:37:53;101191.19;;;8.75;100.00
74065;BME280;62421;51.412;5.432;2022-12-20T02:40:26;101186.72;;;8.76;100.00
74065;BME280;62421;51.412;5.432;2022-12-20T02:42:55;101179.53;;;8.76;100.00
74065;BME280;62421;51.412;5.432;2022-12-20T02:45:26;101183.06;;;8.77;100.00
74065;BME280;62421;51.412;5.432;2022-12-20T02:48:06;101173.16;;;8.79;100.00
74065;BME280;62421;51.412;5.432;2022-12-20T02:50:43;101177.38;;;8.83;100.00
74065;BME280;62421;51.412;5.432;2022-12-20T02:53:10;101168.22;;;8.87;100.00
74065;BME280;62421;51.412;5.432;2022-12-20T02:55:48;101162.50;;;8.93;100.00
74065;BME280;62421;51.412;5.432;2022-12-20T02:58:37;101165.53;;;8.87;100.00
74065;BME280;62421;51.412;5.432;2022-12-20T03:01:09;101172.78;;;8.85;100.00
74065;BME280;62421;51.412;5.432;2022-12-20T03:03:36;101172.78;;;8.85;100.00
74065;BME280;62421;51.412;5.432;2022-12-20T03:06:02;101172.78;;;8.85;100.00
74065;BME280;62421;51.412;5.432;2022-12-20T03:08:28;101176.25;;;8.87;100.00
74065;BME280;62421;51.412;5.432;2022-12-20T03:10:54;101182.19;;;8.92;100.00
74065;BME280;62421;51.412;5.432;2022-12-20T03:13:21;101178.31;;;8.98;100.00
74065;BME280;62421;51.412;5.432;2022-12-20T03:15:47;101169.31;;;8.99;100.00
74065;BME280;62421;51.412;5.432;2022-12-20T03:18:12;101167.31;;;9.02;100.00
74065;BME280;62421;51.412;5.432;2022-12-20T03:20:37;101165.34;;;9.06;100.00
74065;BME280;62421;51.412;5.432;2022-12-20T03:23:03;101163.44;;;9.08;100.00
74065;BME280;62421;51.412;5.432;2022-12-20T03:25:29;101160.75;;;9.08;100.00
74065;BME280;62421;51.412;5.432;2022-12-20T03:27:54;101165.06;;;9.11;100.00
74065;BME280;62421;51.412;5.432;2022-12-20T03:30:19;101164.88;;;9.14;100.00
74065;BME280;62421;51.412;5.432;2022-12-20T03:32:45;101163.84;;;9.16;100.00
74065;BME280;62421;51.412;5.432;2022-12-20T03:35:10;101170.06;;;9.17;100.00
74065;BME280;62421;51.412;5.432;2022-12-20T03:37:36;101168.16;;;9.19;100.00
74065;BME280;62421;51.412;5.432;2022-12-20T03:40:01;101165.28;;;9.22;100.00
74065;BME280;62421;51.412;5.432;2022-12-20T03:42:27;101172.28;;;9.25;100.00
74065;BME280;62421;51.412;5.432;2022-12-20T03:44:52;101167.59;;;9.28;100.00
74065;BME280;62421;51.412;5.432;2022-12-20T03:47:17;101173.66;;;9.32;100.00
74065;BME280;62421;51.412;5.432;2022-12-20T03:49:43;101179.59;;;9.37;100.00
74065;BME280;62421;51.412;5.432;2022-12-20T03:52:11;101176.75;;;9.40;100.00
74065;BME280;62421;51.412;5.432;2022-12-20T03:54:36;101170.41;;;9.41;100.00
74065;BME280;62421;51.412;5.432;2022-12-20T03:57:02;101155.88;;;9.45;100.00
74065;BME280;62421;51.412;5.432;2022-12-20T03:59:27;101152.13;;;9.48;100.00
74065;BME280;62421;51.412;5.432;2022-12-20T04:01:52;101168.78;;;9.53;100.00
74065;BME280;62421;51.412;5.432;2022-12-20T04:04:18;101154.53;;;9.52;100.00
74065;BME280;62421;51.412;5.432;2022-12-20T04:06:43;101151.00;;;9.52;100.00
74065;BME280;62421;51.412;5.432;2022-12-20T04:09:08;101149.28;;;9.51;100.00
74065;BME280;62421;51.412;5.432;2022-12-20T04:11:34;101159.13;;;9.50;100.00
74065;BME280;62421;51.412;5.432;2022-12-20T04:13:59;101153.75;;;9.50;100.00
74065;BME280;62421;51.412;5.432;2022-12-20T04:16:26;101155.59;;;9.50;100.00
74065;BME280;62421;51.412;5.432;2022-12-20T04:18:52;101158.28;;;9.50;100.00
74065;BME280;62421;51.412;5.432;2022-12-20T04:21:24;101151.00;;;9.52;100.00
74065;BME280;62421;51.412;5.432;2022-12-20T04:23:52;101148.13;;;9.55;100.00
74065;BME280;62421;51.412;5.432;2022-12-20T04:26:18;101144.50;;;9.56;100.00
74065;BME280;62421;51.412;5.432;2022-12-20T04:28:43;101147.09;;;9.57;100.00
74065;BME280;62421;51.412;5.432;2022-12-20T04:31:09;101142.38;;;9.61;100.00
74065;BME280;62421;51.412;5.432;2022-12-20T04:33:34;101143.94;;;9.65;100.00
74065;BME280;62421;51.412;5.432;2022-12-20T04:36:00;101137.50;;;9.68;100.00
74065;BME280;62421;51.412;5.432;2022-12-20T04:38:25;101132.16;;;9.68;100.00
74065;BME280;62421;51.412;5.432;2022-12-20T04:40:53;101125.00;;;9.68;100.00
74065;BME280;62421;51.412;5.432;2022-12-20T04:43:19;101134.66;;;9.71;100.00
74065;BME280;62421;51.412;5.432;2022-12-20T04:45:46;101144.31;;;9.73;100.00
74065;BME280;62421;51.412;5.432;2022-12-20T04:48:13;101133.41;;;9.76;100.00
74065;BME280;62421;51.412;5.432;2022-12-20T04:50:38;101134.06;;;9.80;100.00
74065;BME280;62421;51.412;5.432;2022-12-20T04:53:04;101140.28;;;9.80;100.00
74065;BME280;62421;51.412;5.432;2022-12-20T04:55:47;101133.00;;;9.82;100.00
74065;BME280;62421;51.412;5.432;2022-12-20T04:58:16;101129.28;;;9.85;100.00
74065;BME280;62421;51.412;5.432;2022-12-20T05:00:41;101124.78;;;9.86;100.00
74065;BME280;62421;51.412;5.432;2022-12-20T05:03:06;101125.66;;;9.86;100.00
74065;BME280;62421;51.412;5.432;2022-12-20T05:05:32;101126.50;;;9.87;100.00
74065;BME280;62421;51.412;5.432;2022-12-20T05:07:57;101121.13;;;9.87;100.00
74065;BME280;62421;51.412;5.432;2022-12-20T05:10:23;101127.47;;;9.86;100.00
74065;BME280;62421;51.412;5.432;2022-12-20T05:12:48;101114.84;;;9.88;100.00
74065;BME280;62421;51.412;5.432;2022-12-20T05:15:14;101119.22;;;9.89;100.00
74065;BME280;62421;51.412;5.432;2022-12-20T05:17:39;101114.06;;;9.86;100.00
74065;BME280;62421;51.412;5.432;2022-12-20T05:20:05;101110.69;;;9.82;100.00
74065;BME280;62421;51.412;5.432;2022-12-20T05:22:31;101101.97;;;9.78;100.00
74065;BME280;62421;51.412;5.432;2022-12-20T05:25:15;101093.06;;;9.78;100.00
74065;BME280;62421;51.412;5.432;2022-12-20T05:28:00;101099.50;;;9.75;100.00
74065;BME280;62421;51.412;5.432;2022-12-20T05:30:25;101091.53;;;9.74;100.00
74065;BME280;62421;51.412;5.432;2022-12-20T05:32:51;101085.41;;;9.72;100.00
74065;BME280;62421;51.412;5.432;2022-12-20T05:35:16;101098.94;;;9.70;100.00
74065;BME280;62421;51.412;5.432;2022-12-20T05:37:42;101093.75;;;9.67;100.00
74065;BME280;62421;51.412;5.432;2022-12-20T05:40:08;101086.00;;;9.62;100.00
74065;BME280;62421;51.412;5.432;2022-12-20T05:42:33;101080.72;;;9.61;100.00
74065;BME280;62421;51.412;5.432;2022-12-20T05:44:59;101081.69;;;9.60;100.00
74065;BME280;62421;51.412;5.432;2022-12-20T05:47:27;101087.16;;;9.58;100.00
74065;BME280;62421;51.412;5.432;2022-12-20T05:49:55;101090.69;;;9.59;100.00
74065;BME280;62421;51.412;5.432;2022-12-20T05:52:20;101086.28;;;9.58;100.00
74065;BME280;62421;51.412;5.432;2022-12-20T05:54:45;101079.19;;;9.57;100.00
74065;BME280;62421;51.412;5.432;2022-12-20T05:57:11;101075.66;;;9.56;100.00
74065;BME280;62421;51.412;5.432;2022-12-20T05:59:36;101059.56;;;9.56;100.00
74065;BME280;62421;51.412;5.432;2022-12-20T06:02:02;101067.59;;;9.56;100.00
74065;BME280;62421;51.412;5.432;2022-12-20T06:04:31;101072.13;;;9.56;100.00
74065;BME280;62421;51.412;5.432;2022-12-20T06:06:57;101056.03;;;9.56;100.00
74065;BME280;62421;51.412;5.432;2022-12-20T06:09:24;101047.00;;;9.57;100.00
74065;BME280;62421;51.412;5.432;2022-12-20T06:11:49;101030.16;;;9.55;100.00
74065;BME280;62421;51.412;5.432;2022-12-20T06:14:14;101026.16;;;9.48;100.00
74065;BME280;62421;51.412;5.432;2022-12-20T06:16:40;101032.88;;;9.40;100.00
74065;BME280;62421;51.412;5.432;2022-12-20T06:19:05;101036.88;;;9.33;100.00
74065;BME280;62421;51.412;5.432;2022-12-20T06:21:30;101043.41;;;9.29;100.00
74065;BME280;62421;51.412;5.432;2022-12-20T06:23:56;101036.59;;;9.23;100.00
74065;BME280;62421;51.412;5.432;2022-12-20T06:26:21;101016.19;;;9.21;100.00
74065;BME280;62421;51.412;5.432;2022-12-20T06:28:49;101034.19;;;9.19;100.00
74065;BME280;62421;51.412;5.432;2022-12-20T06:31:18;101038.78;;;9.17;100.00
74065;BME280;62421;51.412;5.432;2022-12-20T06:33:43;101037.03;;;9.16;100.00
74065;BME280;62421;51.412;5.432;2022-12-20T06:36:09;101042.59;;;9.13;100.00
74065;BME280;62421;51.412;5.432;2022-12-20T06:38:35;101039.84;;;9.14;100.00
74065;BME280;62421;51.412;5.432;2022-12-20T06:41:00;101027.28;;;9.15;99.94
74065;BME280;62421;51.412;5.432;2022-12-20T06:43:25;101033.41;;;9.17;100.00
74065;BME280;62421;51.412;5.432;2022-12-20T06:45:51;101027.00;;;9.19;99.47
74065;BME280;62421;51.412;5.432;2022-12-20T06:48:16;101010.72;;;9.22;99.45
74065;BME280;62421;51.412;5.432;2022-12-20T06:50:41;101025.78;;;9.25;99.27
74065;BME280;62421;51.412;5.432;2022-12-20T06:53:07;101028.34;;;9.27;99.24
74065;BME280;62421;51.412;5.432;2022-12-20T06:55:32;101019.28;;;9.29;98.61
74065;BME280;62421;51.412;5.432;2022-12-20T06:57:57;101033.53;;;9.30;98.51
74065;BME280;62421;51.412;5.432;2022-12-20T07:00:23;101031.72;;;9.30;98.58
74065;BME280;62421;51.412;5.432;2022-12-20T07:02:48;101030.66;;;9.33;98.24
74065;BME280;62421;51.412;5.432;2022-12-20T07:05:13;101032.28;;;9.35;98.25
74065;BME280;62421;51.412;5.432;2022-12-20T07:07:39;101034.78;;;9.38;98.19
74065;BME280;62421;51.412;5.432;2022-12-20T07:10:05;101032.88;;;9.40;97.69
74065;BME280;62421;51.412;5.432;2022-12-20T07:12:31;101031.03;;;9.41;97.74
74065;BME280;62421;51.412;5.432;2022-12-20T07:14:58;101030.94;;;9.42;97.44
74065;BME280;62421;51.412;5.432;2022-12-20T07:17:23;101038.03;;;9.43;97.52
74065;BME280;62421;51.412;5.432;2022-12-20T07:19:48;101038.09;;;9.42;97.52
74065;BME280;62421;51.412;5.432;2022-12-20T07:22:14;101041.69;;;9.42;97.07
74065;BME280;62421;51.412;5.432;2022-12-20T07:24:39;101039.00;;;9.42;97.63
74065;BME280;62421;51.412;5.432;2022-12-20T07:27:04;101041.69;;;9.42;97.28
74065;BME280;62421;51.412;5.432;2022-12-20T07:29:30;101033.63;;;9.42;97.03
74065;BME280;62421;51.412;5.432;2022-12-20T07:31:55;101037.09;;;9.45;96.87
74065;BME280;62421;51.412;5.432;2022-12-20T07:34:20;101042.44;;;9.45;97.09
74065;BME280;62421;51.412;5.432;2022-12-20T07:36:46;101036.97;;;9.46;96.84
74065;BME280;62421;51.412;5.432;2022-12-20T07:39:11;101044.06;;;9.47;96.10
74065;BME280;62421;51.412;5.432;2022-12-20T07:41:40;101051.91;;;9.50;96.59
74065;BME280;62421;51.412;5.432;2022-12-20T07:44:05;101048.00;;;9.56;95.45
74065;BME280;62421;51.412;5.432;2022-12-20T07:46:30;101057.66;;;9.58;96.00
74065;BME280;62421;51.412;5.432;2022-12-20T07:48:57;101048.47;;;9.62;95.73
74065;BME280;62421;51.412;5.432;2022-12-20T07:51:27;101052.75;;;9.65;95.76
74065;BME280;62421;51.412;5.432;2022-12-20T07:53:58;101058.81;;;9.69;95.88
74065;BME280;62421;51.412;5.432;2022-12-20T07:56:27;101056.88;;;9.71;95.33
74065;BME280;62421;51.412;5.432;2022-12-20T07:58:55;101055.84;;;9.73;95.63
74065;BME280;62421;51.412;5.432;2022-12-20T08:01:23;101057.44;;;9.76;94.64
74065;BME280;62421;51.412;5.432;2022-12-20T08:03:51;101058.22;;;9.78;94.87
74065;BME280;62421;51.412;5.432;2022-12-20T08:06:17;101057.06;;;9.82;95.22
74065;BME280;62421;51.412;5.432;2022-12-20T08:08:46;101062.34;;;9.83;95.52
74065;BME280;62421;51.412;5.432;2022-12-20T08:11:13;101060.31;;;9.87;95.02
74065;BME280;62421;51.412;5.432;2022-12-20T08:13:40;101052.25;;;9.87;96.10
74065;BME280;62421;51.412;5.432;2022-12-20T08:16:06;101061.06;;;9.89;96.56
74065;BME280;62421;51.412;5.432;2022-12-20T08:18:31;101070.94;;;9.89;97.61
74065;BME280;62421;51.412;5.432;2022-12-20T08:20:56;101061.28;;;9.86;97.46
74065;BME280;62421;51.412;5.432;2022-12-20T08:23:22;101065.78;;;9.86;97.94
74065;BME280;62421;51.412;5.432;2022-12-20T08:25:47;101063.09;;;9.86;98.36
74065;BME280;62421;51.412;5.432;2022-12-20T08:28:12;101064.72;;;9.88;99.11
74065;BME280;62421;51.412;5.432;2022-12-20T08:30:38;101058.28;;;9.91;98.71
74065;BME280;62421;51.412;5.432;2022-12-20T08:33:03;101069.69;;;9.94;98.24
74065;BME280;62421;51.412;5.432;2022-12-20T08:35:29;101061.75;;;9.93;98.45
74065;BME280;62421;51.412;5.432;2022-12-20T08:37:55;101052.06;;;9.90;98.84
74065;BME280;62421;51.412;5.432;2022-12-20T08:40:21;101054.09;;;9.87;99.11
74065;BME280;62421;51.412;5.432;2022-12-20T08:42:46;101049.31;;;9.77;99.39
74065;BME280;62421;51.412;5.432;2022-12-20T08:45:12;101049.03;;;9.68;100.00
74065;BME280;62421;51.412;5.432;2022-12-20T08:47:38;101043.31;;;9.59;100.00
74065;BME280;62421;51.412;5.432;2022-12-20T08:50:04;101042.81;;;9.53;100.00
74065;BME280;62421;51.412;5.432;2022-12-20T08:52:29;101042.31;;;9.46;100.00
74065;BME280;62421;51.412;5.432;2022-12-20T08:54:55;101037.16;;;9.43;100.00
74065;BME280;62421;51.412;5.432;2022-12-20T08:57:20;101040.63;;;9.45;100.00
74065;BME280;62421;51.412;5.432;2022-12-20T08:59:45;101035.06;;;9.48;100.00
74065;BME280;62421;51.412;5.432;2022-12-20T09:02:14;101038.88;;;9.58;100.00
74065;BME280;62421;51.412;5.432;2022-12-20T09:04:39;101037.44;;;9.67;100.00
74065;BME280;62421;51.412;5.432;2022-12-20T09:07:04;101024.50;;;9.74;100.00
74065;BME280;62421;51.412;5.432;2022-12-20T09:09:29;101022.28;;;9.80;100.00
74065;BME280;62421;51.412;5.432;2022-12-20T09:11:56;101015.78;;;9.84;100.00
74065;BME280;62421;51.412;5.432;2022-12-20T09:14:22;101023.44;;;9.91;100.00
74065;BME280;62421;51.412;5.432;2022-12-20T09:16:47;101025.81;;;9.95;100.00
74065;BME280;62421;51.412;5.432;2022-12-20T09:19:15;101028.31;;;9.98;100.00
74065;BME280;62421;51.412;5.432;2022-12-20T09:21:40;101024.66;;;9.99;100.00
74065;BME280;62421;51.412;5.432;2022-12-20T09:24:06;101019.88;;;10.04;100.00
74065;BME280;62421;51.412;5.432;2022-12-20T09:26:32;101028.47;;;10.10;100.00
74065;BME280;62421;51.412;5.432;2022-12-20T09:28:59;101019.81;;;10.19;100.00
74065;BME280;62421;51.412;5.432;2022-12-20T09:31:26;101026.25;;;10.31;100.00
74065;BME280;62421;51.412;5.432;2022-12-20T09:33:53;101024.00;;;10.37;100.00
74065;BME280;62421;51.412;5.432;2022-12-20T09:36:20;101025.41;;;10.43;100.00
74065;BME280;62421;51.412;5.432;2022-12-20T09:38:46;101008.34;;;10.44;100.00
74065;BME280;62421;51.412;5.432;2022-12-20T09:44:06;101011.13;;;10.42;100.00
74065;BME280;62421;51.412;5.432;2022-12-20T09:46:35;101029.16;;;10.40;99.44
74065;BME280;62421;51.412;5.432;2022-12-20T09:49:01;101040.19;;;10.36;99.49
74065;BME280;62421;51.412;5.432;2022-12-20T09:56:43;101026.03;;;10.34;99.97
74065;BME280;62421;51.412;5.432;2022-12-20T09:59:13;101011.66;;;10.35;99.54
74065;BME280;62421;51.412;5.432;2022-12-20T10:01:43;101016.03;;;10.36;100.00
74065;BME280;62421;51.412;5.432;2022-12-20T10:04:22;101020.34;;;10.38;99.52
74065;BME280;62421;51.412;5.432;2022-12-20T10:09:52;101011.97;;;10.43;99.83
74065;BME280;62421;51.412;5.432;2022-12-20T10:15:28;101007.97;;;10.63;98.70
74065;BME280;62421;51.412;5.432;2022-12-20T10:20:45;101014.75;;;10.81;98.02
74065;BME280;62421;51.412;5.432;2022-12-20T10:23:38;101019.94;;;10.84;98.23
74065;BME280;62421;51.412;5.432;2022-12-20T10:26:08;101024.25;;;10.87;97.32
74065;BME280;62421;51.412;5.432;2022-12-20T10:28:35;101028.94;;;10.83;98.71
74065;BME280;62421;51.412;5.432;2022-12-20T10:31:02;101024.97;;;10.76;99.72
74065;BME280;62421;51.412;5.432;2022-12-20T10:33:30;101021.09;;;10.68;100.00
74065;BME280;62421;51.412;5.432;2022-12-20T10:36:31;101007.31;;;10.59;100.00
74065;BME280;62421;51.412;5.432;2022-12-20T10:39:08;101011.91;;;10.57;100.00
74065;BME280;62421;51.412;5.432;2022-12-20T10:44:16;101003.44;;;10.51;100.00
74065;BME280;62421;51.412;5.432;2022-12-20T10:46:52;101004.81;;;10.43;100.00
74065;BME280;62421;51.412;5.432;2022-12-20T10:49:30;101004.38;;;10.37;100.00
74065;BME280;62421;51.412;5.432;2022-12-20T10:52:30;100997.72;;;10.28;100.00
74065;BME280;62421;51.412;5.432;2022-12-20T10:54:48;101002.75;;;10.20;100.00
74065;BME280;62421;51.412;5.432;2022-12-20T10:57:29;100994.25;;;10.13;100.00
74065;BME280;62421;51.412;5.432;2022-12-20T10:59:59;101001.81;;;10.07;100.00
74065;BME280;62421;51.412;5.432;2022-12-20T11:02:33;100993.03;;;10.04;100.00
74065;BME280;62421;51.412;5.432;2022-12-20T11:05:21;100995.81;;;10.03;100.00
74065;BME280;62421;51.412;5.432;2022-12-20T11:07:56;100995.06;;;10.01;100.00
74065;BME280;62421;51.412;5.432;2022-12-20T11:10:24;100996.75;;;10.02;100.00
74065;BME280;62421;51.412;5.432;2022-12-20T11:13:01;100991.00;;;10.08;100.00
74065;BME280;62421;51.412;5.432;2022-12-20T11:15:31;100988.00;;;10.13;100.00
74065;BME280;62421;51.412;5.432;2022-12-20T11:18:07;100991.91;;;10.21;100.00
74065;BME280;62421;51.412;5.432;2022-12-20T11:24:10;100988.06;;;10.25;100.00
74065;BME280;62421;51.412;5.432;2022-12-20T11:30:07;100986.44;;;10.23;100.00
74065;BME280;62421;51.412;5.432;2022-12-20T11:32:49;100979.66;;;10.17;100.00
74065;BME280;62421;51.412;5.432;2022-12-20T11:35:58;100969.13;;;10.14;100.00
74065;BME280;62421;51.412;5.432;2022-12-20T11:38:39;100980.06;;;10.11;100.00
74065;BME280;62421;51.412;5.432;2022-12-20T11:41:09;100973.94;;;10.09;100.00
74065;BME280;62421;51.412;5.432;2022-12-20T11:43:54;100974.81;;;10.10;100.00
74065;BME280;62421;51.412;5.432;2022-12-20T11:46:47;100973.66;;;10.14;100.00
74065;BME280;62421;51.412;5.432;2022-12-20T11:52:07;100964.03;;;10.24;100.00
74065;BME280;62421;51.412;5.432;2022-12-20T11:54:41;100965.81;;;10.23;100.00
74065;BME280;62421;51.412;5.432;2022-12-20T11:57:26;100960.28;;;10.27;100.00
74065;BME280;62421;51.412;5.432;2022-12-20T11:59:58;100958.16;;;10.32;100.00
74065;BME280;62421;51.412;5.432;2022-12-20T12:02:34;100953.56;;;10.34;100.00
74065;BME280;62421;51.412;5.432;2022-12-20T12:05:04;100950.97;;;10.32;100.00
74065;BME280;62421;51.412;5.432;2022-12-20T12:07:33;100956.59;;;10.28;100.00
74065;BME280;62421;51.412;5.432;2022-12-20T12:10:13;100954.06;;;10.26;100.00
74065;BME280;62421;51.412;5.432;2022-12-20T12:12:45;100942.34;;;10.27;100.00
74065;BME280;62421;51.412;5.432;2022-12-20T12:18:02;100942.91;;;10.32;100.00
74065;BME280;62421;51.412;5.432;2022-12-20T12:25:47;100946.72;;;10.28;100.00
74065;BME280;62421;51.412;5.432;2022-12-20T12:28:13;100943.41;;;10.24;100.00
74065;BME280;62421;51.412;5.432;2022-12-20T12:30:52;100945.34;;;10.22;100.00
74065;BME280;62421;51.412;5.432;2022-12-20T12:33:31;100938.13;;;10.23;100.00
74065;BME280;62421;51.412;5.432;2022-12-20T12:45:01;100945.19;;;10.11;100.00
74065;BME280;62421;51.412;5.432;2022-12-20T12:47:38;100937.25;;;10.10;100.00
74065;BME280;62421;51.412;5.432;2022-12-20T12:50:08;100945.47;;;10.07;100.00
74065;BME280;62421;51.412;5.432;2022-12-20T12:52:49;100944.53;;;10.08;100.00
74065;BME280;62421;51.412;5.432;2022-12-20T13:01:10;100943.69;;;10.07;100.00
74065;BME280;62421;51.412;5.432;2022-12-20T13:03:40;100934.88;;;10.05;100.00
74065;BME280;62421;51.412;5.432;2022-12-20T13:11:38;100929.53;;;9.91;100.00
74065;BME280;62421;51.412;5.432;2022-12-20T13:16:42;100912.91;;;9.86;100.00
74065;BME280;62421;51.412;5.432;2022-12-20T13:22:25;100929.31;;;9.81;100.00
74065;BME280;62421;51.412;5.432;2022-12-20T13:25:01;100925.88;;;9.79;100.00
74065;BME280;62421;51.412;5.432;2022-12-20T13:27:40;100933.25;;;9.75;100.00
74065;BME280;62421;51.412;5.432;2022-12-20T13:40:43;100926.19;;;9.60;100.00
74065;BME280;62421;51.412;5.432;2022-12-20T13:43:25;100923.59;;;9.58;100.00
74065;BME280;62421;51.412;5.432;2022-12-20T13:51:15;100925.53;;;9.56;100.00
74065;BME280;62421;51.412;5.432;2022-12-20T13:53:50;100926.50;;;9.55;100.00
74065;BME280;62421;51.412;5.432;2022-12-20T13:58:50;100929.28;;;9.54;100.00
74065;BME280;62421;51.412;5.432;2022-12-20T14:01:16;100927.66;;;9.51;100.00
74065;BME280;62421;51.412;5.432;2022-12-20T14:03:45;100922.38;;;9.50;100.00
74065;BME280;62421;51.412;5.432;2022-12-20T14:06:13;100922.59;;;9.47;100.00
74065;BME280;62421;51.412;5.432;2022-12-20T14:08:45;100915.50;;;9.46;100.00
74065;BME280;62421;51.412;5.432;2022-12-20T14:11:15;100920.84;;;9.46;100.00
74065;BME280;62421;51.412;5.432;2022-12-20T14:13:51;100919.25;;;9.43;100.00
74065;BME280;62421;51.412;5.432;2022-12-20T14:16:18;100914.81;;;9.42;100.00
74065;BME280;62421;51.412;5.432;2022-12-20T14:18:49;100920.19;;;9.42;100.00
74065;BME280;62421;51.412;5.432;2022-12-20T14:21:15;100926.44;;;9.42;100.00
74065;BME280;62421;51.412;5.432;2022-12-20T14:23:42;100922.97;;;9.40;100.00
74065;BME280;62421;51.412;5.432;2022-12-20T14:26:15;100917.63;;;9.40;100.00
74065;BME280;62421;51.412;5.432;2022-12-20T14:28:43;100924.81;;;9.40;100.00
74065;BME280;62421;51.412;5.432;2022-12-20T14:36:42;100922.22;;;9.38;100.00
74065;BME280;62421;51.412;5.432;2022-12-20T14:39:27;100930.25;;;9.38;100.00
74065;BME280;62421;51.412;5.432;2022-12-20T14:42:28;100923.16;;;9.37;100.00